Leonia, New Jersey
Current Conditions -  °F | °C
As of 8:51 AM on Monday 20 Oct 2014 (Local Time) from KTEB Reporting Station
Clear Clear  
Wind Chill: 42°   Ceiling: Unl
Heat Index: 45°   Visibility: 10mi
Dew Point: 31°   Wind: 6mph
Humidity: 58%   Direction: 210°SSW
Pressure: 30.12"   Gusts: NA
Location:  40.86°N, 73.99°W
Report Text: KTEB 201251Z 21005KT 10SM CLR 07/M01 A3012 RMK AO2 SLP200 T00721006
Loading
Personal Weather Stations






























Interactive Weather Map New forecast layout! Learn more

10-Day Weather Forecast

Advertisements
Track Severe Weather on mobile